Time;durP1;ratioP1;P1;durP2;ratioP2;P2;SDS_P1;SDS_P2;PMS_P1;PMS_P2;Temp;Humidity;BMP_temperature;BMP_pressure;BME280_temperature;BME280_humidity;BME280_pressure;Samples;Min_cycle;Max_cycle;Signal;HPM_P1;HPM_P2
2021/12/16 00:07:19;;;;;;;45.50;23.90;;;;;;;5.34;93.89;99837.15;417863;1321;108848;-43
2021/12/16 00:38:19;;;;;;;55.70;25.80;;;;;;;5.38;93.53;99829.95;417862;1321;108929;-41
2021/12/16 00:48:47;;;;;;;45.30;23.60;;;;;;;5.36;93.77;99831.40;417868;1321;96332;-42
2021/12/16 00:58:57;;;;;;;43.20;22.30;;;;;;;5.38;93.70;99827.83;417927;1320;109161;-41
2021/12/16 01:50:32;;;;;;;45.10;23.20;;;;;;;5.47;93.72;99801.27;419209;1314;108885;-42
2021/12/16 02:00:54;;;;;;;48.50;21.80;;;;;;;5.48;93.82;99793.10;419159;1314;96254;-42
2021/12/16 02:42:06;;;;;;;51.10;25.00;;;;;;;5.30;94.07;99778.45;419297;1313;109787;-41
2021/12/16 02:52:17;;;;;;;44.20;24.30;;;;;;;5.33;94.14;99787.27;419358;1315;109013;-42
2021/12/16 03:02:27;;;;;;;53.60;26.90;;;;;;;5.35;94.23;99788.36;419167;1314;96226;-41
2021/12/16 03:43:39;;;;;;;37.60;20.80;;;;;;;5.47;94.10;99803.66;419001;1313;108964;-43
2021/12/16 03:53:50;;;;;;;44.60;22.80;;;;;;;5.51;94.39;99803.58;419283;1314;96297;-43
2021/12/16 04:03:58;;;;;;;45.80;24.10;;;;;;;5.53;94.41;99804.72;418547;1315;109903;-44
2021/12/16 04:14:06;;;;;;;49.00;25.70;;;;;;;5.55;94.23;99803.23;418986;1314;108989;-41
2021/12/16 04:24:15;;;;;;;41.60;23.30;;;;;;;5.57;94.20;99804.14;419274;1315;95423;-41
2021/12/16 04:34:23;;;;;;;36.70;19.60;;;;;;;5.54;94.27;99805.11;419248;1317;108952;-42
2021/12/16 04:44:31;;;;;;;43.20;23.20;;;;;;;5.54;94.28;99808.29;419117;1315;96219;-41
2021/12/16 04:54:39;;;;;;;37.80;21.90;;;;;;;5.54;94.27;99807.56;419305;1316;109817;-41
2021/12/16 05:04:47;;;;;;;36.20;21.50;;;;;;;5.53;94.22;99809.21;419105;1315;108888;-43
2021/12/16 05:14:54;;;;;;;44.70;26.60;;;;;;;5.50;94.31;99804.05;419489;1314;96069;-41
2021/12/16 05:25:02;;;;;;;46.90;24.30;;;;;;;5.42;94.34;99802.61;419137;1316;109706;-42
2021/12/16 05:35:10;;;;;;;34.40;22.30;;;;;;;5.34;94.06;99793.39;419182;1315;109298;-41
2021/12/16 05:45:17;;;;;;;31.20;20.20;;;;;;;5.34;94.00;99799.36;419355;1315;96350;-41
2021/12/16 05:55:26;;;;;;;38.40;21.00;;;;;;;5.36;94.11;99799.28;419093;1315;95565;-42
2021/12/16 06:05:33;;;;;;;33.00;19.30;;;;;;;5.38;94.04;99804.94;418396;1315;108975;-41
2021/12/16 06:36:13;;;;;;;142.70;83.80;;;;;;;5.49;94.24;99808.17;419324;1314;108546;-41
2021/12/16 06:46:30;;;;;;;41.90;27.70;;;;;;;5.46;94.25;99799.26;414645;1315;5777900;-41
2021/12/16 06:56:47;;;;;;;66.60;39.60;;;;;;;5.49;94.15;99803.39;419360;1313;108899;-42
2021/12/16 07:06:53;;;;;;;39.70;25.10;;;;;;;5.55;94.09;99798.61;419288;1313;96207;-41
2021/12/16 07:16:59;;;;;;;38.90;21.70;;;;;;;5.59;94.30;99800.88;419102;1314;108818;-41
2021/12/16 07:27:04;;;;;;;30.80;20.10;;;;;;;5.63;94.17;99799.07;419175;1313;96298;-41
2021/12/16 07:37:10;;;;;;;33.30;18.60;;;;;;;5.68;94.06;99796.80;419064;1312;109611;-41
2021/12/16 07:47:18;;;;;;;87.60;47.30;;;;;;;5.70;94.12;99795.19;419281;1313;108795;-41
2021/12/16 07:57:26;;;;;;;55.80;34.20;;;;;;;5.68;94.21;99793.09;419193;1313;96001;-41
2021/12/16 08:07:33;;;;;;;46.20;25.60;;;;;;;5.67;93.97;99792.57;419451;1313;109743;-40
2021/12/16 08:17:40;;;;;;;32.40;21.30;;;;;;;5.70;93.89;99791.33;419738;1315;108277;-43
2021/12/16 08:27:49;;;;;;;62.80;43.30;;;;;;;5.76;93.96;99798.18;418710;1315;96231;-40
2021/12/16 08:37:56;;;;;;;94.30;52.10;;;;;;;5.82;94.08;99801.98;419033;1315;108773;-41
2021/12/16 08:48:05;;;;;;;38.00;24.90;;;;;;;5.86;94.03;99812.63;418765;1315;109050;-40
2021/12/16 08:58:13;;;;;;;33.20;21.40;;;;;;;5.89;93.94;99815.94;419341;1315;95410;-41
2021/12/16 09:08:19;;;;;;;36.90;23.40;;;;;;;5.94;93.89;99821.08;418615;1315;107402;-41
2021/12/16 09:18:30;;;;;;;25.50;18.60;;;;;;;5.99;94.00;99820.46;418638;1315;96732;-40
2021/12/16 09:28:35;;;;;;;;;;;;;;;6.00;93.92;99821.11;418779;1315;108685;-40
2021/12/16 09:38:44;;;;;;;28.30;18.90;;;;;;;6.03;94.09;99823.48;418685;1315;108923;-41
2021/12/16 09:48:52;;;;;;;25.40;15.80;;;;;;;6.10;94.07;99814.46;418814;1315;96212;-41
2021/12/16 09:59:02;;;;;;;27.60;17.50;;;;;;;6.19;94.11;99807.77;418825;1315;109375;-42
2021/12/16 10:09:11;;;;;;;17.10;12.10;;;;;;;6.23;94.10;99811.81;420211;1312;95792;-41
